Time;durP1;ratioP1;P1;durP2;ratioP2;P2;SDS_P1;SDS_P2;PMS_P1;PMS_P2;Temp;Humidity;BMP_temperature;BMP_pressure;BME280_temperature;BME280_humidity;BME280_pressure;Samples;Min_cycle;Max_cycle;Signal;HPM_P1;HPM_P2
2022/04/19 00:00:18;;;;;;;3.03;1.88;;;;;;;-140.72;100.00;52459.84;5058428;28;20042;-73
2022/04/19 00:02:43;;;;;;;2.55;1.85;;;;;;;-140.72;100.00;52419.28;5043550;28;20059;-73
2022/04/19 00:05:09;;;;;;;2.25;1.70;;;;;;;-140.72;100.00;52435.50;5039946;28;20555;-72
2022/04/19 00:07:37;;;;;;;2.20;1.55;;;;;;;-140.72;100.00;52411.16;5051451;28;20038;-72
2022/04/19 00:10:06;;;;;;;4.57;2.72;;;;;;;-140.72;100.00;52453.75;5040810;28;20071;-72
2022/04/19 00:12:32;;;;;;;2.57;2.10;;;;;;;-140.72;100.00;52443.63;5039828;28;20064;-72
2022/04/19 00:14:58;;;;;;;3.15;1.42;;;;;;;-140.72;100.00;52457.81;5065400;28;20019;-72
2022/04/19 00:17:23;;;;;;;2.45;2.25;;;;;;;-140.72;100.00;52423.31;5057089;28;20034;-73
2022/04/19 00:19:48;;;;;;;3.67;2.40;;;;;;;-140.72;100.00;52447.69;5058393;28;20021;-72
2022/04/19 00:22:14;;;;;;;2.50;1.75;;;;;;;-140.72;100.00;52378.69;5051043;28;20077;-72
2022/04/19 00:24:40;;;;;;;3.63;1.67;;;;;;;-140.72;100.00;52433.47;5066598;28;20467;-72
2022/04/19 00:27:06;;;;;;;2.15;1.30;;;;;;;-140.72;100.00;52423.31;5060777;28;20464;-72
2022/04/19 00:29:31;;;;;;;3.92;2.85;;;;;;;-140.72;100.00;52445.66;5077062;28;20027;-72
2022/04/19 00:31:56;;;;;;;2.20;1.75;;;;;;;-140.72;100.00;52419.28;5039278;28;20027;-72
2022/04/19 00:34:22;;;;;;;5.25;2.85;;;;;;;-140.72;100.00;52443.63;5049963;28;20024;-73
2022/04/19 00:36:47;;;;;;;2.90;2.38;;;;;;;-140.72;100.00;52435.50;5070937;28;20022;-72
2022/04/19 00:39:13;;;;;;;5.60;1.77;;;;;;;-140.72;100.00;52435.50;5012691;28;20037;-72
2022/04/19 00:41:38;;;;;;;3.28;2.58;;;;;;;-140.72;100.00;52443.63;5050872;28;20037;-72
2022/04/19 00:44:04;;;;;;;2.53;2.03;;;;;;;-140.72;100.00;52419.28;5078925;28;20072;-72
2022/04/19 00:46:29;;;;;;;0.65;0.55;;;;;;;-140.72;100.00;52461.88;5007962;28;20168;-72
2022/04/19 00:48:56;;;;;;;2.20;1.58;;;;;;;-140.72;100.00;52447.69;5009255;28;20041;-73
2022/04/19 00:51:24;;;;;;;3.33;1.83;;;;;;;-140.72;100.00;52433.47;4988554;28;20042;-72
2022/04/19 00:53:49;;;;;;;1.67;1.38;;;;;;;-140.72;100.00;52447.69;4989095;28;20476;-72
2022/04/19 00:56:15;;;;;;;3.67;1.65;;;;;;;-140.72;100.00;52403.03;4989329;28;20041;-72
2022/04/19 00:58:41;;;;;;;2.97;2.30;;;;;;;-140.72;100.00;52435.50;4989048;28;20027;-72
2022/04/19 01:01:06;;;;;;;2.30;1.92;;;;;;;-140.72;100.00;52409.13;4989613;28;20049;-72
2022/04/19 01:03:31;;;;;;;2.10;1.45;;;;;;;-140.72;100.00;52445.66;4988892;28;20373;-73
2022/04/19 01:05:58;;;;;;;2.83;1.70;;;;;;;-140.72;100.00;52459.84;4988802;28;20034;-73
2022/04/19 01:08:24;;;;;;;4.15;3.05;;;;;;;-140.72;100.00;52451.72;4989059;28;20242;-72
2022/04/19 01:10:49;;;;;;;2.83;1.63;;;;;;;-140.72;100.00;52439.56;4989016;28;20038;-72
2022/04/19 01:13:18;;;;;;;1.65;0.85;;;;;;;-140.72;100.00;52429.41;4988886;28;20034;-72
2022/04/19 01:15:47;;;;;;;2.85;2.10;;;;;;;-140.72;100.00;52431.44;4988857;28;20056;-73
2022/04/19 01:18:14;;;;;;;6.38;2.67;;;;;;;-140.72;100.00;52443.63;4988051;28;20079;-71
2022/04/19 01:20:41;;;;;;;2.40;1.40;;;;;;;-140.72;100.00;52435.50;4989091;28;20027;-71
2022/04/19 01:23:07;;;;;;;1.67;1.38;;;;;;;-140.72;100.00;52449.72;4988705;28;20475;-73
2022/04/19 01:25:34;;;;;;;2.50;1.35;;;;;;;-140.72;100.00;52459.84;4989027;28;20026;-72
2022/04/19 01:27:59;;;;;;;2.80;1.85;;;;;;;-140.72;100.00;52445.66;4988928;28;20034;-74
2022/04/19 01:30:25;;;;;;;2.35;1.35;;;;;;;-140.72;100.00;52443.63;4988400;28;20584;-73
2022/04/19 01:32:50;;;;;;;5.18;1.30;;;;;;;-140.72;100.00;52443.63;4988630;28;20038;-73
2022/04/19 01:35:18;;;;;;;2.92;2.25;;;;;;;-140.72;100.00;52425.34;4988699;28;20023;-72
2022/04/19 01:37:48;;;;;;;2.55;1.90;;;;;;;-140.72;100.00;52476.09;4988505;28;20101;-72
2022/04/19 01:40:17;;;;;;;4.68;2.08;;;;;;;-140.72;100.00;52467.97;4988496;28;20061;-74
2022/04/19 01:43:03;;;;;;;2.00;1.33;;;;;;;-140.72;100.00;52457.81;4989570;28;20038;-72
2022/04/19 01:45:31;;;;;;;1.42;1.05;;;;;;;-140.72;100.00;52403.03;4991951;28;20058;-72
2022/04/19 01:47:57;;;;;;;4.10;2.20;;;;;;;-140.72;100.00;52419.28;4997026;28;20030;-72
2022/04/19 01:50:26;;;;;;;3.22;1.88;;;;;;;-140.72;100.00;52463.91;5011858;28;20053;-72
2022/04/19 01:52:53;;;;;;;8.43;1.80;;;;;;;-140.72;100.00;52488.25;5011724;28;20029;-72
2022/04/19 01:55:20;;;;;;;3.10;1.40;;;;;;;-140.72;100.00;52411.16;5011508;28;20386;-72
2022/04/19 01:57:51;;;;;;;3.90;2.10;;;;;;;-140.72;100.00;52488.25;5000565;28;20419;-73
2022/04/19 02:00:17;;;;;;;2.80;2.35;;;;;;;-140.72;100.00;52449.72;4991675;28;20039;-72
2022/04/19 02:02:45;;;;;;;4.40;1.38;;;;;;;-140.72;100.00;52465.94;4991860;28;20026;-72
2022/04/19 02:05:11;;;;;;;5.40;1.95;;;;;;;-140.72;100.00;52431.44;4991982;28;20100;-72
2022/04/19 02:07:38;;;;;;;3.60;2.17;;;;;;;-140.72;100.00;52451.72;4991983;28;20037;-72
2022/04/19 02:10:05;;;;;;;3.85;2.70;;;;;;;-140.72;100.00;52486.22;4991689;28;20030;-74
2022/04/19 02:12:31;;;;;;;3.83;1.75;;;;;;;-140.72;100.00;52461.88;4991152;28;20403;-72
2022/04/19 02:14:57;;;;;;;2.55;2.03;;;;;;;-140.72;100.00;52474.06;4991672;28;20034;-73
2022/04/19 02:17:23;;;;;;;3.80;2.65;;;;;;;-140.72;100.00;52502.47;4991412;28;20034;-72
2022/04/19 02:19:58;;;;;;;4.00;1.92;;;;;;;-140.72;100.00;52474.06;4991690;28;20102;-74
2022/04/19 02:22:23;;;;;;;2.90;2.47;;;;;;;-140.72;100.00;52461.88;4991555;28;20152;-74
2022/04/19 02:24:49;;;;;;;2.10;1.23;;;;;;;-140.72;100.00;52449.72;4991607;28;20027;-72
2022/04/19 02:27:15;;;;;;;5.07;3.13;;;;;;;-140.72;100.00;52463.91;4991426;28;20038;-72
2022/04/19 02:29:40;;;;;;;3.65;1.50;;;;;;;-140.72;100.00;52467.97;4991095;28;20038;-73
2022/04/19 02:32:06;;;;;;;4.78;1.25;;;;;;;-140.72;100.00;52486.22;4991163;28;20141;-72
2022/04/19 02:34:31;;;;;;;2.78;2.22;;;;;;;-140.72;100.00;52472.03;5004745;28;20034;-72
2022/04/19 02:36:57;;;;;;;3.40;2.22;;;;;;;-140.72;100.00;52467.97;5010321;28;20057;-74
2022/04/19 02:39:22;;;;;;;2.65;1.75;;;;;;;-140.72;100.00;52451.72;5011220;28;20033;-72
2022/04/19 02:41:47;;;;;;;2.60;1.92;;;;;;;-140.72;100.00;52474.06;5010956;28;20116;-72
2022/04/19 02:44:13;;;;;;;1.75;1.65;;;;;;;-140.72;100.00;52480.16;5011281;28;20030;-72
2022/04/19 02:46:38;;;;;;;2.05;1.70;;;;;;;-140.72;100.00;52506.53;5011161;28;20056;-72
2022/04/19 02:49:04;;;;;;;2.00;1.33;;;;;;;-140.72;100.00;52504.50;5030649;28;20421;-73
2022/04/19 02:51:32;;;;;;;4.25;2.45;;;;;;;-140.72;100.00;52461.88;5030235;28;20398;-74
2022/04/19 02:53:58;;;;;;;3.50;1.83;;;;;;;-140.72;100.00;52502.47;5009992;28;20472;-72
2022/04/19 02:56:24;;;;;;;1.58;1.13;;;;;;;-140.72;100.00;52467.97;5009768;28;20026;-72
2022/04/19 02:58:49;;;;;;;2.78;1.70;;;;;;;-140.72;100.00;52455.78;5010558;28;20095;-73
2022/04/19 03:01:15;;;;;;;2.95;2.45;;;;;;;-140.72;100.00;52484.19;5013521;28;20049;-73
2022/04/19 03:03:40;;;;;;;2.70;1.45;;;;;;;-140.72;100.00;52508.56;5083143;28;20051;-72
2022/04/19 03:06:07;;;;;;;2.88;1.92;;;;;;;-140.72;100.00;52492.31;5038755;28;20046;-72
2022/04/19 03:08:34;;;;;;;1.50;1.40;;;;;;;-140.72;100.00;52514.63;5051609;28;20029;-72
2022/04/19 03:11:00;;;;;;;2.50;1.95;;;;;;;-140.72;100.00;52480.16;5029326;28;20117;-72
2022/04/19 03:13:27;;;;;;;3.33;2.53;;;;;;;-140.72;100.00;52449.72;5088596;28;20183;-73
2022/04/19 03:15:52;;;;;;;5.47;1.88;;;;;;;-140.72;100.00;52467.97;5042039;28;20034;-72
2022/04/19 03:18:18;;;;;;;3.92;2.35;;;;;;;-140.72;100.00;52502.47;5034632;28;20071;-73
2022/04/19 03:20:45;;;;;;;3.33;1.55;;;;;;;-140.72;100.00;52455.78;5037343;28;20026;-72
2022/04/19 03:28:40;;;;;;;5.32;2.95;;;;;;;-140.72;100.00;52484.19;5050371;28;20099;-72
2022/04/19 03:31:05;;;;;;;3.15;2.20;;;;;;;-140.72;100.00;52490.28;5023154;28;20046;-72
2022/04/19 03:33:31;;;;;;;2.33;1.65;;;;;;;-140.72;100.00;52502.47;5087918;28;20023;-72
2022/04/19 03:35:57;;;;;;;1.77;1.23;;;;;;;-140.72;100.00;52520.72;5113060;28;20383;-72
2022/04/19 03:38:22;;;;;;;2.38;2.10;;;;;;;-140.72;100.00;52514.63;5113337;28;20023;-72
2022/04/19 03:40:48;;;;;;;3.10;2.67;;;;;;;-140.72;100.00;52486.22;5113382;28;20106;-72
2022/04/19 03:43:13;;;;;;;3.35;1.95;;;;;;;-140.72;100.00;52476.09;5069537;28;20073;-72
2022/04/19 03:45:39;;;;;;;1.67;1.10;;;;;;;-140.72;100.00;52532.91;5051427;28;20517;-71
2022/04/19 03:48:05;;;;;;;4.55;1.45;;;;;;;-140.72;100.00;52482.16;5050421;28;20025;-72
2022/04/19 03:50:32;;;;;;;2.53;1.55;;;;;;;-140.72;100.00;52492.31;5060005;28;20056;-71
2022/04/19 03:52:57;;;;;;;1.58;1.33;;;;;;;-140.72;100.00;52510.59;5027365;28;20033;-72
2022/04/19 03:55:23;;;;;;;2.70;1.52;;;;;;;-140.72;100.00;52500.44;5096716;28;20024;-72
2022/04/19 03:57:48;;;;;;;1.55;0.88;;;;;;;-140.72;100.00;52510.59;5054968;28;20022;-72
2022/04/19 04:00:15;;;;;;;3.00;2.47;;;;;;;-140.72;100.00;52500.44;5063034;28;20096;-73
2022/04/19 04:02:40;;;;;;;1.92;1.38;;;;;;;-140.72;100.00;52502.47;5038605;28;20041;-72
2022/04/19 04:05:06;;;;;;;3.08;1.52;;;;;;;-140.72;100.00;52484.19;5008783;28;20022;-71
2022/04/19 04:07:33;;;;;;;2.30;1.05;;;;;;;-140.72;100.00;52492.31;4992930;28;20522;-71
2022/04/19 04:09:58;;;;;;;2.00;1.88;;;;;;;-140.72;100.00;52488.25;4989625;28;20472;-70
2022/04/19 04:12:24;;;;;;;5.18;1.77;;;;;;;-140.72;100.00;52488.25;4989557;28;20035;-71
2022/04/19 04:14:49;;;;;;;3.47;2.42;;;;;;;-140.72;100.00;52484.19;4989703;28;20388;-71
2022/04/19 04:17:15;;;;;;;1.98;1.65;;;;;;;-140.72;100.00;52439.56;4991778;28;20037;-70
2022/04/19 04:19:40;;;;;;;3.40;1.80;;;;;;;-140.72;100.00;52492.31;5053669;28;20026;-70
2022/04/19 04:22:06;;;;;;;2.45;1.52;;;;;;;-140.72;100.00;52506.53;5112203;28;20437;-70
2022/04/19 04:24:31;;;;;;;2.13;1.23;;;;;;;-140.72;100.00;52518.69;5111820;28;20026;-70
2022/04/19 04:26:57;;;;;;;3.20;2.42;;;;;;;-140.72;100.00;52557.25;5111962;28;20553;-70
2022/04/19 04:29:22;;;;;;;1.85;1.75;;;;;;;-140.72;100.00;52524.78;5111775;28;20030;-71
2022/04/19 04:31:48;;;;;;;4.40;2.80;;;;;;;-140.72;100.00;52528.84;5054706;28;20022;-70
2022/04/19 04:34:13;;;;;;;1.90;1.27;;;;;;;-140.72;100.00;52514.63;5036052;28;20456;-70
2022/04/19 04:36:38;;;;;;;1.73;1.38;;;;;;;-140.72;100.00;52508.56;5019751;28;20084;-72
2022/04/19 04:39:04;;;;;;;1.73;1.63;;;;;;;-140.72;100.00;52549.13;5051104;28;20483;-71
2022/04/19 04:41:29;;;;;;;1.63;1.52;;;;;;;-140.72;100.00;52492.31;5070857;28;20366;-72
2022/04/19 04:43:55;;;;;;;3.22;1.88;;;;;;;-140.72;100.00;52528.84;5008794;28;20116;-70
2022/04/19 04:51:48;;;;;;;2.97;1.92;;;;;;;-140.72;100.00;52543.03;5111711;28;20309;-70
2022/04/19 04:54:13;;;;;;;4.00;1.92;;;;;;;-140.72;100.00;52516.66;5111228;28;20023;-70
2022/04/19 04:56:39;;;;;;;1.75;0.90;;;;;;;-140.72;100.00;52532.91;5111265;28;20031;-70
2022/04/19 04:59:04;;;;;;;3.00;2.70;;;;;;;-140.72;100.00;52541.03;5110820;28;20524;-72
2022/04/19 05:01:30;;;;;;;2.25;1.27;;;;;;;-140.72;100.00;52536.97;5110934;28;20676;-71
2022/04/19 05:03:55;;;;;;;2.72;2.03;;;;;;;-140.72;100.00;52534.94;5061690;28;20471;-72
2022/04/19 05:06:20;;;;;;;3.33;2.33;;;;;;;-140.72;100.00;52532.91;5050195;28;20023;-71
2022/04/19 05:08:46;;;;;;;2.22;1.60;;;;;;;-140.72;100.00;52516.66;5070362;28;20068;-71
2022/04/19 05:11:11;;;;;;;2.13;1.92;;;;;;;-140.72;100.00;52516.66;5035552;28;20108;-72
2022/04/19 05:13:37;;;;;;;1.65;1.55;;;;;;;-140.72;100.00;52512.59;5021492;28;20027;-72
2022/04/19 05:16:02;;;;;;;1.50;0.95;;;;;;;-140.72;100.00;52496.38;5007715;28;20026;-71
2022/04/19 05:18:30;;;;;;;1.38;1.25;;;;;;;-140.72;100.00;52541.03;5010132;28;20064;-71
2022/04/19 05:20:55;;;;;;;2.00;1.63;;;;;;;-140.72;100.00;52482.16;5010608;28;20109;-71
2022/04/19 05:23:21;;;;;;;4.18;1.10;;;;;;;-140.72;100.00;52492.31;5011893;28;20058;-70
2022/04/19 05:25:46;;;;;;;1.35;1.25;;;;;;;-140.72;100.00;52516.66;5043148;28;20024;-73
2022/04/19 05:28:12;;;;;;;5.13;2.42;;;;;;;-140.72;100.00;52488.25;5049775;28;20112;-71
2022/04/19 05:30:37;;;;;;;2.95;2.13;;;;;;;-140.72;100.00;52518.69;5010632;28;20083;-71
2022/04/19 05:33:03;;;;;;;9.80;1.42;;;;;;;-140.72;100.00;52508.56;5011235;28;20049;-70
2022/04/19 05:35:28;;;;;;;1.92;1.45;;;;;;;-140.72;100.00;52547.09;5011010;28;20430;-72
2022/04/19 05:37:55;;;;;;;3.03;1.83;;;;;;;-140.72;100.00;52510.59;5010871;28;20368;-70
2022/04/19 05:40:21;;;;;;;2.15;1.58;;;;;;;-140.72;100.00;52516.66;5011107;28;20080;-70
2022/04/19 05:42:46;;;;;;;3.13;2.45;;;;;;;-140.72;100.00;52516.66;5011373;28;20057;-69
2022/04/19 05:45:11;;;;;;;3.45;1.02;;;;;;;-140.72;100.00;52480.16;5011251;28;20458;-71
2022/04/19 05:47:37;;;;;;;2.53;1.25;;;;;;;-140.72;100.00;52504.50;5011238;28;20034;-69
2022/04/19 05:50:02;;;;;;;2.22;1.55;;;;;;;-140.72;100.00;52488.25;5010939;28;20437;-70
2022/04/19 05:52:28;;;;;;;3.17;1.48;;;;;;;-140.72;100.00;52500.44;5010937;28;20034;-70
2022/04/19 05:54:53;;;;;;;2.30;1.60;;;;;;;-140.72;100.00;52506.53;5011010;28;20057;-69
2022/04/19 05:57:18;;;;;;;3.15;1.75;;;;;;;-140.72;100.00;52467.97;5010957;28;20045;-69
2022/04/19 05:59:44;;;;;;;1.02;0.98;;;;;;;-140.72;100.00;52524.78;5010843;28;20088;-69
2022/04/19 06:04:53;;;;;;;2.22;1.42;;;;;;;-140.72;100.00;52451.72;5011318;28;20041;-70
2022/04/19 06:07:22;;;;;;;2.35;1.63;;;;;;;-140.72;100.00;52478.13;4996769;28;20030;-73
2022/04/19 06:09:48;;;;;;;1.90;1.47;;;;;;;-140.72;100.00;52465.94;4991336;28;20476;-70
2022/04/19 06:12:13;;;;;;;2.58;1.42;;;;;;;-140.72;100.00;52455.78;4991267;28;20034;-71
2022/04/19 06:14:39;;;;;;;1.95;1.77;;;;;;;-140.72;100.00;52459.84;4991381;28;20030;-72
2022/04/19 06:17:05;;;;;;;2.33;1.38;;;;;;;-140.72;100.00;52486.22;4991446;28;20037;-70
2022/04/19 06:19:30;;;;;;;2.28;1.15;;;;;;;-140.72;100.00;52447.69;4990669;28;20026;-71
2022/04/19 06:21:59;;;;;;;1.88;1.38;;;;;;;-140.72;100.00;52506.53;4991005;28;20361;-70
2022/04/19 06:24:25;;;;;;;3.75;2.40;;;;;;;-140.72;100.00;52459.84;4991220;28;20076;-71
2022/04/19 06:26:51;;;;;;;2.70;1.35;;;;;;;-140.72;100.00;52459.84;4990986;28;20413;-69
2022/04/19 06:29:17;;;;;;;2.75;1.98;;;;;;;-140.72;100.00;52445.66;4990786;28;20030;-72
2022/04/19 06:31:43;;;;;;;1.95;1.35;;;;;;;-140.72;100.00;52447.69;4991003;28;20027;-72
2022/04/19 06:34:09;;;;;;;3.28;1.73;;;;;;;-140.72;100.00;52449.72;4998224;28;20094;-70
2022/04/19 06:36:35;;;;;;;1.48;1.27;;;;;;;-140.72;100.00;52470.00;5008851;28;20613;-72
2022/04/19 06:39:00;;;;;;;1.88;0.98;;;;;;;-140.72;100.00;52451.72;5010219;28;20170;-72
2022/04/19 06:41:26;;;;;;;2.10;1.52;;;;;;;-140.72;100.00;52451.72;5010734;28;20060;-70
2022/04/19 06:43:52;;;;;;;2.75;1.90;;;;;;;-140.72;100.00;52449.72;5010733;28;20026;-70
2022/04/19 06:46:18;;;;;;;4.15;1.35;;;;;;;-140.72;100.00;52433.47;5010924;28;20037;-72
2022/04/19 06:48:43;;;;;;;2.55;0.93;;;;;;;-140.72;100.00;52390.84;5010563;28;20030;-71
2022/04/19 06:51:09;;;;;;;3.70;1.73;;;;;;;-140.72;100.00;52411.16;5010317;28;20030;-70
2022/04/19 06:53:36;;;;;;;3.25;2.17;;;;;;;-140.72;100.00;52421.28;5010038;28;20040;-71
2022/04/19 06:56:03;;;;;;;3.92;1.83;;;;;;;-140.72;100.00;52403.03;5009874;28;20026;-71
2022/04/19 06:58:28;;;;;;;3.13;2.45;;;;;;;-140.72;100.00;52433.47;5010114;28;20061;-69
2022/04/19 07:00:53;;;;;;;2.47;1.73;;;;;;;-140.72;100.00;52384.78;4995798;28;20058;-70
2022/04/19 07:03:19;;;;;;;2.30;1.50;;;;;;;-140.72;100.00;52413.19;4990698;28;20064;-69
2022/04/19 07:05:44;;;;;;;6.47;2.63;;;;;;;-140.72;100.00;52370.56;4990365;28;20023;-69
2022/04/19 07:08:11;;;;;;;3.67;1.70;;;;;;;-140.72;100.00;52421.28;4990246;28;20083;-70
2022/04/19 07:10:37;;;;;;;2.10;1.67;;;;;;;-140.72;100.00;52394.91;4990277;28;20066;-71
2022/04/19 07:13:03;;;;;;;3.53;1.38;;;;;;;-140.72;100.00;52423.31;4990343;28;20122;-70
2022/04/19 07:15:29;;;;;;;4.85;2.42;;;;;;;-140.72;100.00;52358.41;5000834;28;20060;-69
2022/04/19 07:17:54;;;;;;;3.63;1.75;;;;;;;-140.72;100.00;52419.28;5008197;28;20437;-69
2022/04/19 07:28:35;;;;;;;3.53;1.30;;;;;;;-140.72;100.00;52348.25;5112971;28;20149;-69
2022/04/19 07:31:05;;;;;;;3.05;1.65;;;;;;;-140.72;100.00;52342.16;5036442;28;20024;-69
2022/04/19 07:33:31;;;;;;;1.33;1.20;;;;;;;-140.72;100.00;52299.56;5036529;28;20048;-70
2022/04/19 07:35:57;;;;;;;2.97;1.48;;;;;;;-140.72;100.00;52313.75;5009659;28;20368;-71
2022/04/19 07:38:23;;;;;;;4.28;2.17;;;;;;;-140.72;100.00;52336.06;5018490;28;20033;-71
2022/04/19 07:40:49;;;;;;;5.93;1.75;;;;;;;-140.72;100.00;52340.13;5027738;28;20026;-70
2022/04/19 07:43:15;;;;;;;3.05;1.83;;;;;;;-140.72;100.00;52305.63;5102176;28;20031;-69
2022/04/19 07:45:41;;;;;;;4.70;2.28;;;;;;;-140.72;100.00;52291.44;5111770;28;20027;-71
2022/04/19 07:48:07;;;;;;;4.97;3.15;;;;;;;-140.72;100.00;52261.00;5112469;28;20034;-69
2022/04/19 07:50:34;;;;;;;6.35;2.67;;;;;;;-140.72;100.00;52313.75;5039168;28;20362;-69
2022/04/19 07:53:00;;;;;;;3.05;1.92;;;;;;;-140.72;100.00;52263.03;5009622;28;20025;-70
2022/04/19 07:55:25;;;;;;;3.22;2.05;;;;;;;-140.72;100.00;52317.81;5039631;28;20039;-69
2022/04/19 07:57:51;;;;;;;2.45;1.60;;;;;;;-140.72;100.00;52269.13;5049904;28;20036;-69
2022/04/19 08:00:17;;;;;;;2.75;1.85;;;;;;;-140.72;100.00;52293.47;5013800;28;20041;-72
2022/04/19 08:02:42;;;;;;;2.85;1.25;;;;;;;-140.72;100.00;52265.06;5017745;28;20559;-70
2022/04/19 08:05:09;;;;;;;2.35;1.73;;;;;;;-140.72;100.00;52261.00;5008789;28;20101;-70
2022/04/19 08:07:35;;;;;;;4.00;1.58;;;;;;;-140.72;100.00;52240.72;5008986;28;20090;-70
2022/04/19 08:10:01;;;;;;;4.53;1.73;;;;;;;-140.72;100.00;52265.06;5008562;28;20050;-71
2022/04/19 08:12:27;;;;;;;3.25;2.08;;;;;;;-140.72;100.00;52287.38;5008154;28;20080;-70
2022/04/19 08:14:52;;;;;;;3.45;1.67;;;;;;;-140.72;100.00;52258.97;5009109;28;20025;-72
2022/04/19 08:17:18;;;;;;;2.47;1.30;;;;;;;-140.72;100.00;52242.75;5008546;28;20033;-71
2022/04/19 08:19:43;;;;;;;4.53;2.05;;;;;;;-140.72;100.00;52256.94;5008736;28;20026;-70
2022/04/19 08:22:08;;;;;;;2.72;1.60;;;;;;;-140.72;100.00;52244.78;5009082;28;20022;-70
2022/04/19 08:24:34;;;;;;;1.02;0.50;;;;;;;-140.72;100.00;52252.88;5008685;28;20022;-71
2022/04/19 08:27:00;;;;;;;2.35;1.55;;;;;;;-140.72;100.00;52297.53;5008288;28;20057;-70
2022/04/19 08:29:25;;;;;;;2.33;1.30;;;;;;;-140.72;100.00;52240.72;5024246;28;20242;-70
2022/04/19 08:31:51;;;;;;;3.85;1.95;;;;;;;-140.72;100.00;52226.50;5081863;28;20468;-69
2022/04/19 08:34:16;;;;;;;1.63;1.08;;;;;;;-140.72;100.00;52224.47;4992209;28;20514;-69
2022/04/19 08:36:43;;;;;;;4.32;1.35;;;;;;;-140.72;100.00;52194.03;5008327;28;20029;-70
2022/04/19 08:39:09;;;;;;;1.45;0.63;;;;;;;-140.72;100.00;52212.31;5008677;28;20567;-72
2022/04/19 08:41:37;;;;;;;1.77;1.40;;;;;;;-140.72;100.00;52202.16;5008510;28;20368;-70
2022/04/19 08:44:04;;;;;;;2.63;1.75;;;;;;;-140.72;100.00;52141.28;5009436;28;20026;-69
2022/04/19 08:46:31;;;;;;;1.90;1.10;;;;;;;-140.72;100.00;52187.97;5008603;28;20102;-72
2022/04/19 08:49:03;;;;;;;3.70;1.55;;;;;;;-140.72;100.00;52141.28;5008779;28;20563;-70
2022/04/19 08:51:32;;;;;;;2.28;1.08;;;;;;;-140.72;100.00;52151.44;5008002;28;20049;-72
2022/04/19 08:59:33;;;;;;;1.50;0.80;;;;;;;-140.72;100.00;52171.72;5001764;28;20073;-72
2022/04/19 09:02:02;;;;;;;2.05;0.75;;;;;;;-140.72;100.00;52102.75;5008491;28;20068;-69
2022/04/19 09:04:27;;;;;;;3.78;0.95;;;;;;;-140.72;100.00;52090.56;5008088;28;20037;-69
2022/04/19 09:07:00;;;;;;;1.50;0.80;;;;;;;-140.72;100.00;52123.03;5005633;28;20411;-70
2022/04/19 09:09:28;;;;;;;2.40;0.93;;;;;;;-140.72;100.00;52104.75;5008007;28;20091;-72
2022/04/19 09:12:06;;;;;;;1.88;1.20;;;;;;;-140.72;100.00;52098.69;5007169;28;20447;-69
2022/04/19 09:14:31;;;;;;;3.05;1.25;;;;;;;-140.72;100.00;52074.34;5004117;28;20031;-70
2022/04/19 09:17:10;;;;;;;6.28;1.35;;;;;;;-140.72;100.00;52118.97;4988306;28;20062;-69
2022/04/19 09:19:37;;;;;;;1.23;0.80;;;;;;;-140.72;100.00;52092.59;4988722;28;20041;-69
2022/04/19 09:22:03;;;;;;;3.60;0.93;;;;;;;-140.72;100.00;52102.75;4988041;28;20145;-72
2022/04/19 09:24:29;;;;;;;0.60;0.45;;;;;;;-140.72;100.00;52090.56;4988305;28;20065;-69
2022/04/19 09:26:54;;;;;;;3.03;0.82;;;;;;;-140.72;100.00;52118.97;5022071;28;20037;-70
2022/04/19 09:29:27;;;;;;;1.40;0.73;;;;;;;-140.72;100.00;52094.63;5027446;28;20033;-71
2022/04/19 09:31:57;;;;;;;2.17;1.08;;;;;;;-140.72;100.00;52159.56;5027263;28;20490;-69
2022/04/19 09:34:28;;;;;;;1.63;0.57;;;;;;;-140.72;100.00;52088.53;5027375;28;20030;-71
2022/04/19 09:37:08;;;;;;;2.15;0.77;;;;;;;-140.72;100.00;52078.38;5027894;28;20040;-69
2022/04/19 09:39:36;;;;;;;2.90;0.93;;;;;;;-140.72;100.00;52021.56;5027900;28;20470;-69
2022/04/19 09:42:10;;;;;;;2.72;1.00;;;;;;;-140.72;100.00;51991.16;5027306;28;20037;-71
2022/04/19 09:44:40;;;;;;;1.88;0.80;;;;;;;-140.72;100.00;52005.34;5027262;28;20067;-69
2022/04/19 09:47:16;;;;;;;1.92;1.13;;;;;;;-140.72;100.00;51983.03;5015760;28;20052;-71
2022/04/19 09:49:49;;;;;;;2.35;1.25;;;;;;;-140.72;100.00;51942.44;5007290;28;20037;-72
2022/04/19 09:52:41;;;;;;;1.95;1.13;;;;;;;-140.72;100.00;51938.41;5007616;28;20040;-70
2022/04/19 09:55:09;;;;;;;3.25;1.13;;;;;;;-140.72;100.00;51944.47;5007345;28;20022;-70
2022/04/19 09:57:37;;;;;;;4.57;1.20;;;;;;;-140.72;100.00;51893.75;5007427;28;20041;-69
2022/04/19 10:00:12;;;;;;;1.23;0.47;;;;;;;-140.72;100.00;51918.09;5007469;28;20058;-70
2022/04/19 10:08:14;;;;;;;1.90;0.80;;;;;;;-140.72;98.85;51889.69;5010954;28;20053;-69
2022/04/19 10:10:42;;;;;;;2.33;1.05;;;;;;;-140.72;88.96;51891.72;5010795;28;20045;-69
2022/04/19 10:13:08;;;;;;;2.10;1.23;;;;;;;-140.72;84.73;51824.78;5010607;28;20527;-68
2022/04/19 10:15:35;;;;;;;1.92;0.93;;;;;;;-140.72;79.58;51800.44;5010118;28;20041;-68
2022/04/19 10:18:03;;;;;;;3.63;1.17;;;;;;;-140.72;82.51;51834.91;5010391;28;20030;-68
2022/04/19 10:20:32;;;;;;;3.45;1.13;;;;;;;-140.72;79.06;51875.50;5009692;28;20571;-69
2022/04/19 10:23:05;;;;;;;1.98;1.13;;;;;;;-140.72;83.60;51818.69;5054608;28;20463;-68
2022/04/19 10:25:45;;;;;;;2.67;1.25;;;;;;;-140.72;81.00;51822.75;5089196;28;20053;-68
2022/04/19 10:28:14;;;;;;;;;;;;;;;-140.72;76.11;51792.31;5010618;28;20054;-68
2022/04/19 10:30:51;;;;;;;1.05;0.55;;;;;;;-140.72;77.33;51753.78;5098201;28;19934;-68
2022/04/19 10:33:38;;;;;;;2.53;1.50;;;;;;;-140.72;75.18;51765.94;5067004;28;20022;-69
2022/04/19 10:36:13;;;;;;;1.95;0.90;;;;;;;-140.72;73.13;51776.09;5053138;28;20077;-69
2022/04/19 10:38:39;;;;;;;3.30;1.60;;;;;;;-140.72;73.51;51824.78;5062304;28;20478;-68
2022/04/19 10:41:04;;;;;;;1.77;0.93;;;;;;;-140.72;70.79;51796.38;5038140;28;20030;-69
2022/04/19 10:43:30;;;;;;;1.63;0.75;;;;;;;-140.72;69.42;51794.34;5009118;28;20028;-70
2022/04/19 10:46:19;;;;;;;3.03;1.80;;;;;;;-140.72;61.43;51733.47;5011197;28;20034;-69
2022/04/19 10:49:22;;;;;;;2.88;1.33;;;;;;;-140.72;74.29;51841.00;5008270;28;20141;-68
2022/04/19 10:51:52;;;;;;;2.30;0.95;;;;;;;-140.72;62.94;51810.56;5009481;28;20029;-68
2022/04/19 10:54:56;;;;;;;2.17;1.02;;;;;;;-140.72;63.33;51755.81;5008419;28;20061;-69
2022/04/19 11:00:22;;;;;;;4.10;1.02;;;;;;;-140.72;62.79;51788.25;5009358;28;20060;-68
2022/04/19 11:03:07;;;;;;;1.73;0.90;;;;;;;-140.72;65.79;51776.09;5009893;28;20102;-69
2022/04/19 11:05:46;;;;;;;2.47;1.30;;;;;;;-140.72;72.09;51794.34;5009698;28;20467;-68
2022/04/19 11:08:29;;;;;;;2.70;1.50;;;;;;;-140.72;64.02;51818.69;5009549;28;20034;-69
2022/04/19 11:11:06;;;;;;;3.42;1.73;;;;;;;-140.72;67.41;51761.88;5009522;28;20064;-68
2022/04/19 11:13:40;;;;;;;3.80;1.60;;;;;;;-140.72;70.66;51703.06;5009661;28;20065;-69
2022/04/19 11:16:05;;;;;;;2.53;1.38;;;;;;;-140.72;61.73;51757.81;5008537;28;20073;-70
2022/04/19 11:18:32;;;;;;;3.00;1.37;;;;;;;-140.72;64.08;51692.91;5009276;28;20060;-70
2022/04/19 11:21:00;;;;;;;3.38;1.50;;;;;;;-140.72;62.61;51674.66;5009617;28;20276;-68
2022/04/19 11:23:27;;;;;;;2.30;1.30;;;;;;;-140.72;62.99;51658.41;5009191;28;20498;-69
2022/04/19 11:25:53;;;;;;;2.63;0.98;;;;;;;-140.72;63.66;51646.25;5007893;28;20539;-69
2022/04/19 11:28:20;;;;;;;3.70;1.83;;;;;;;-140.72;56.79;51628.00;5009591;28;20045;-69
2022/04/19 11:31:05;;;;;;;2.55;1.23;;;;;;;-140.72;56.96;51601.63;5008774;28;20059;-70
2022/04/19 11:33:33;;;;;;;3.35;1.30;;;;;;;-140.72;57.39;51636.09;5009598;28;20368;-70
2022/04/19 11:36:09;;;;;;;2.55;1.13;;;;;;;-140.72;49.53;51644.22;5019441;28;20033;-69
2022/04/19 11:38:43;;;;;;;2.40;1.20;;;;;;;-140.72;60.66;51711.16;5028981;28;20026;-68
2022/04/19 11:46:46;;;;;;;2.80;1.00;;;;;;;-140.72;48.17;51577.28;4989864;28;20072;-69
2022/04/19 11:49:27;;;;;;;3.35;1.30;;;;;;;-140.72;46.08;51615.81;4985610;28;20503;-69
2022/04/19 11:51:55;;;;;;;2.22;1.20;;;;;;;-140.72;49.21;51644.22;5009117;28;20029;-69